메인 페이지
METAR-TAF:

METAR-TAF

공항 :

시드니 킹스포드 스미스 국제공항

시드니, 오스트레일리아

위도: 33-57S, 경도: 151-11E, 고도: 6m

현재 날씨관측

예보는 37분 전, 13:00시(UTC)에 발표되었습니다.
북북서5kt
온도 14°C
습도 82%
기압 1026 hPa
시정 10km 이상

METAR: YSSY 251300Z AUTO 33005KT 9999 // NCD 14/11 Q1026 RF00.0/000.0

시각: 23:37 (13:37 UTC)

예보

예보는 2 시간 15분 전, 11:22시(UTC)에 발표되었습니다.
예보 대상 시간: 25일 12시부터 26일 18시까지 (UTC)
서북서7kt
시정 10km 이상
고도 2000ft 상공 구름 조금
25일 1800시부터 (UTC)
서북서7kt
시정 10km 이상
1500m 미만 상공 구름 및 적란운 없음
26일 0500시부터 (UTC)
남남동5kt
시정 10km 이상
1500m 미만 상공 구름 및 적란운 없음
26일 0900시부터 (UTC)
북동5kt
시정 10km 이상
1500m 미만 상공 구름 및 적란운 없음
26일 1200시부터 (UTC)
북서7kt
시정 10km 이상
1500m 미만 상공 구름 및 적란운 없음

TAF: YSSY 251122Z 2512/2618 30007KT 9999 FEW020 FM251800 30007KT CAVOK FM260500 16005KT CAVOK FM260900 04005KT CAVOK FM261200 31007KT CAVOK

4,000개 이상의 공항 관측 자료 및 예보 (METAR 및 TAF 보고).

지도상에서 검색 가능한 기상관측소가 노란 점과 빨간 점으로 표시되어 있습니다.

기상관측소 명을 보려면 표시 위로 마우스를 이동하세요.

날씨 관측과 예보를 보려면 클릭하세요.

지도 변경 : 확대하려면 엑스 표시가 있는 녹색 버튼, 축소하려면 빼기 표시가 있는 녹색 버튼, 다음 페이지의 지도를 보려면 녹색 화살표를 클릭하세요.


METAR-TAF: